Eviapetrol II — SY6858 — position and weather

sailwx.info

Track history (hours):
 
Tides and Currents Weather Stations Pressure Air Temp Water Temp Dewpoint Dewpoint Depression Visibility Wind Speed Wind Dir Waves Ship Positions

Eviapetrol II

Last reported at 2015-Jan-31 10:24 UTC. Time now 2015-Jan-31 11:36 UTC.
Position N 38°02' E 023°32'.

Length 78 m; draft 4 m.

Type: Tanker. MMSI: 240493000.

Date/timePositionNaut miles runAvg speedWind from/ knotsBaromVisibWave heightAir tempDewpointWater temp
2015-Jan-31 10:24N 38°02' E 023°32'0 0.0
2015-Jan-31 09:33N 38°02' E 023°32'3 3.0
2015-Jan-31 08:33N 38°02' E 023°36'0 0.1
2015-Jan-31 07:33N 38°02' E 023°36'0 0.0
2015-Jan-31 06:33N 38°02' E 023°36'0 0.0
2015-Jan-31 05:32N 38°02' E 023°36'0 0.0
2015-Jan-31 04:33N 38°02' E 023°36'0 0.0
2015-Jan-31 03:33N 38°02' E 023°36'0 0.0
2015-Jan-31 02:33N 38°02' E 023°36'0 0.0
2015-Jan-31 01:33N 38°02' E 023°36'0 0.0
2015-Jan-31 00:33N 38°02' E 023°36'0 0.0
2015-Jan-30 23:33N 38°02' E 023°36'0 0.0
2015-Jan-30 22:33N 38°02' E 023°36'0 0.0
2015-Jan-30 21:33N 38°02' E 023°36'0 0.0
2015-Jan-30 20:33N 38°02' E 023°36'0 0.0
2015-Jan-30 19:33N 38°02' E 023°36'0 0.1
2015-Jan-30 18:33N 38°02' E 023°36'1 0.5
2015-Jan-30 17:06N 38°01' E 023°35'0 0.0
2015-Jan-30 16:11N 38°01' E 023°35'0 0.0
2015-Jan-30 15:22N 38°01' E 023°35'4 5.0
2015-Jan-30 14:33N 38°01' E 023°30'8 8.3
2015-Jan-30 13:33N 37°56' E 023°21'  
2015-Jan-27 21:21N 37°56' E 023°19'6 7.5
2015-Jan-27 20:33N 37°58' E 023°26'6 6.3
2015-Jan-27 19:33N 38°01' E 023°33'2 2.4
2015-Jan-27 18:33N 38°02' E 023°36'0 0.0
2015-Jan-27 17:33N 38°02' E 023°36'0 0.0
2015-Jan-27 16:33N 38°02' E 023°36'0 0.0
2015-Jan-27 15:33N 38°02' E 023°36'0 0.0
2015-Jan-27 14:33N 38°02' E 023°36'0 0.0
2015-Jan-27 13:33N 38°02' E 023°36'0 0.0
2015-Jan-27 12:33N 38°02' E 023°36'0 0.0
2015-Jan-27 11:33N 38°02' E 023°36'3 2.5
2015-Jan-27 10:33N 38°01' E 023°33'8 7.9
2015-Jan-27 09:33N 37°54' E 023°37'10 9.7
2015-Jan-27 08:33N 37°45' E 023°43'12 8.8
2015-Jan-27 07:09N 37°38' E 023°56'37 9.4
2015-Jan-27 03:11N 37°57' E 024°36'  
2015-Jan-21 23:33N 36°41' E 026°11'7 9.5
2015-Jan-21 22:49N 36°42' E 026°02'1 9.2
2015-Jan-21 22:42N 36°42' E 026°01'1 9.4
2015-Jan-21 22:33N 36°42' E 025°59'9 8.6
2015-Jan-21 21:27N 36°44' E 025°48'8 8.6
2015-Jan-21 20:33N 36°46' E 025°38'49 9.1
2015-Jan-21 15:13N 37°05' E 024°43'  
Track history (hours):
 
Tides and Currents Weather Stations Pressure Air Temp Water Temp Dewpoint Dewpoint Depression Visibility Wind Speed Wind Dir Waves Ship Positions

Eviapetrol II

Last reported at 2015-Jan-31 10:24 UTC. Time now 2015-Jan-31 11:36 UTC.
Position N 38°02' E 023°32'.

Length 78 m; draft 4 m.

Type: Tanker. MMSI: 240493000.

Date/timePositionNaut miles runAvg speedWind from/ knotsBaromVisibWave heightAir tempDewpointWater temp
2015-Jan-31 10:24N 38°02' E 023°32'0 0.0
2015-Jan-31 09:33N 38°02' E 023°32'3 3.0
2015-Jan-31 08:33N 38°02' E 023°36'0 0.1
2015-Jan-31 07:33N 38°02' E 023°36'0 0.0
2015-Jan-31 06:33N 38°02' E 023°36'0 0.0
2015-Jan-31 05:32N 38°02' E 023°36'0 0.0
2015-Jan-31 04:33N 38°02' E 023°36'0 0.0
2015-Jan-31 03:33N 38°02' E 023°36'0 0.0
2015-Jan-31 02:33N 38°02' E 023°36'0 0.0
2015-Jan-31 01:33N 38°02' E 023°36'0 0.0
2015-Jan-31 00:33N 38°02' E 023°36'0 0.0
2015-Jan-30 23:33N 38°02' E 023°36'0 0.0
2015-Jan-30 22:33N 38°02' E 023°36'0 0.0
2015-Jan-30 21:33N 38°02' E 023°36'0 0.0
2015-Jan-30 20:33N 38°02' E 023°36'0 0.0
2015-Jan-30 19:33N 38°02' E 023°36'0 0.1
2015-Jan-30 18:33N 38°02' E 023°36'1 0.5
2015-Jan-30 17:06N 38°01' E 023°35'0 0.0
2015-Jan-30 16:11N 38°01' E 023°35'0 0.0
2015-Jan-30 15:22N 38°01' E 023°35'4 5.0
2015-Jan-30 14:33N 38°01' E 023°30'8 8.3
2015-Jan-30 13:33N 37°56' E 023°21'  
2015-Jan-27 21:21N 37°56' E 023°19'6 7.5
2015-Jan-27 20:33N 37°58' E 023°26'6 6.3
2015-Jan-27 19:33N 38°01' E 023°33'2 2.4
2015-Jan-27 18:33N 38°02' E 023°36'0 0.0
2015-Jan-27 17:33N 38°02' E 023°36'0 0.0
2015-Jan-27 16:33N 38°02' E 023°36'0 0.0
2015-Jan-27 15:33N 38°02' E 023°36'0 0.0
2015-Jan-27 14:33N 38°02' E 023°36'0 0.0
2015-Jan-27 13:33N 38°02' E 023°36'0 0.0
2015-Jan-27 12:33N 38°02' E 023°36'0 0.0
2015-Jan-27 11:33N 38°02' E 023°36'3 2.5
2015-Jan-27 10:33N 38°01' E 023°33'8 7.9
2015-Jan-27 09:33N 37°54' E 023°37'10 9.7
2015-Jan-27 08:33N 37°45' E 023°43'12 8.8
2015-Jan-27 07:09N 37°38' E 023°56'37 9.4
2015-Jan-27 03:11N 37°57' E 024°36'  
2015-Jan-21 23:33N 36°41' E 026°11'7 9.5
2015-Jan-21 22:49N 36°42' E 026°02'1 9.2
2015-Jan-21 22:42N 36°42' E 026°01'1 9.4
2015-Jan-21 22:33N 36°42' E 025°59'9 8.6
2015-Jan-21 21:27N 36°44' E 025°48'8 8.6
2015-Jan-21 20:33N 36°46' E 025°38'49 9.1
2015-Jan-21 15:13N 37°05' E 024°43'  

Dump ship's entire track history